createdAt,value
2023-12-31T00:00:02.559Z,3.05
2023-12-31T00:00:34.548Z,2.95
2023-12-31T00:01:06.597Z,3.10
2023-12-31T00:01:38.627Z,3.13
2023-12-31T00:02:10.581Z,2.97
2023-12-31T00:02:42.480Z,3.30
2023-12-31T00:03:14.458Z,3.25
2023-12-31T00:03:46.528Z,3.40
2023-12-31T00:04:18.591Z,3.38
2023-12-31T00:04:50.581Z,3.47
2023-12-31T00:05:22.569Z,3.70
2023-12-31T00:05:54.570Z,3.47
2023-12-31T00:06:26.783Z,3.58
2023-12-31T00:06:58.689Z,3.72
2023-12-31T00:07:30.706Z,3.25
2023-12-31T00:08:02.933Z,3.50
2023-12-31T00:08:34.925Z,3.55
2023-12-31T00:09:06.941Z,3.25
2023-12-31T00:09:40.048Z,3.40
2023-12-31T00:10:12.081Z,3.42
2023-12-31T00:10:44.347Z,3.55
2023-12-31T00:11:17.756Z,3.30
2023-12-31T00:11:49.665Z,3.38
2023-12-31T00:12:22.185Z,3.63
2023-12-31T00:12:54.086Z,3.28
2023-12-31T00:13:26.022Z,3.30
2023-12-31T00:13:57.987Z,3.75
2023-12-31T00:14:30.644Z,3.60
2023-12-31T00:15:02.746Z,3.40
2023-12-31T00:15:34.727Z,3.75
2023-12-31T00:16:07.758Z,3.65
2023-12-31T00:16:39.820Z,3.65
2023-12-31T00:17:11.771Z,3.78
2023-12-31T00:17:43.779Z,3.67
2023-12-31T00:18:15.790Z,3.90
2023-12-31T00:18:47.877Z,4.10
2023-12-31T00:19:20.386Z,3.80
2023-12-31T00:19:52.514Z,3.85
2023-12-31T00:20:24.593Z,3.92
2023-12-31T00:20:56.573Z,4.10
2023-12-31T00:21:28.499Z,3.50
2023-12-31T00:22:00.414Z,3.90
2023-12-31T00:22:32.439Z,3.92
2023-12-31T00:23:04.900Z,4.03
2023-12-31T00:23:37.103Z,4.07
2023-12-31T00:24:09.528Z,3.65
2023-12-31T00:24:41.441Z,3.80
2023-12-31T00:25:13.601Z,3.90
2023-12-31T00:25:45.575Z,3.75
2023-12-31T00:26:18.973Z,3.60
2023-12-31T00:26:50.921Z,3.95
2023-12-31T00:27:23.381Z,3.60
2023-12-31T00:27:55.336Z,3.65
2023-12-31T00:28:27.336Z,3.55
2023-12-31T00:28:59.233Z,3.80
2023-12-31T00:29:31.362Z,3.90
2023-12-31T00:30:04.049Z,3.90
2023-12-31T00:30:35.993Z,3.70
2023-12-31T00:31:08.029Z,4.18
2023-12-31T00:31:40.011Z,3.83
2023-12-31T00:32:11.988Z,3.63
2023-12-31T00:32:44.209Z,4.00
2023-12-31T00:33:16.408Z,3.65
2023-12-31T00:33:48.614Z,3.67
2023-12-31T00:34:20.600Z,3.65
2023-12-31T00:34:52.631Z,3.53
2023-12-31T00:35:24.678Z,4.10
2023-12-31T00:35:56.609Z,3.60
2023-12-31T00:36:28.548Z,3.60
2023-12-31T00:37:00.511Z,3.70
2023-12-31T00:37:32.491Z,3.95
2023-12-31T00:38:04.609Z,4.03
2023-12-31T00:38:36.548Z,3.90
2023-12-31T00:39:08.543Z,4.05
2023-12-31T00:39:40.462Z,3.67
2023-12-31T00:40:12.418Z,3.70
2023-12-31T00:40:44.404Z,3.97
2023-12-31T00:41:17.764Z,3.42
2023-12-31T00:41:49.696Z,3.42
2023-12-31T00:42:21.612Z,3.60
2023-12-31T00:42:53.496Z,3.83
2023-12-31T00:43:25.433Z,3.50
2023-12-31T00:43:57.373Z,3.65
2023-12-31T00:44:29.327Z,3.55
2023-12-31T00:45:01.231Z,3.40
2023-12-31T00:45:33.123Z,3.70
2023-12-31T00:46:05.355Z,4.03
2023-12-31T00:46:37.245Z,3.80
2023-12-31T00:47:09.308Z,3.88
2023-12-31T00:47:41.387Z,3.78
2023-12-31T00:48:13.599Z,3.85
2023-12-31T00:48:45.660Z,3.70
2023-12-31T00:49:17.813Z,4.05
2023-12-31T00:49:49.894Z,3.60
2023-12-31T00:50:21.889Z,4.20
2023-12-31T00:50:53.790Z,3.97
2023-12-31T00:51:25.868Z,4.00
2023-12-31T00:51:57.851Z,4.07
2023-12-31T00:52:29.775Z,3.90
2023-12-31T00:53:01.992Z,3.75
2023-12-31T00:53:34.095Z,3.92
2023-12-31T00:54:06.291Z,4.00
2023-12-31T00:54:38.981Z,4.07
2023-12-31T00:55:10.912Z,3.88
2023-12-31T00:55:42.882Z,3.92
2023-12-31T00:56:14.805Z,3.92
2023-12-31T00:56:48.206Z,3.83
2023-12-31T00:57:20.330Z,3.78
2023-12-31T00:57:52.240Z,3.65
2023-12-31T00:58:24.177Z,3.92
2023-12-31T00:58:56.123Z,3.60
2023-12-31T00:59:28.068Z,3.90
2023-12-31T00:59:59.991Z,3.63
2023-12-31T01:00:31.916Z,3.45
2023-12-31T01:01:04.405Z,3.55
2023-12-31T01:01:36.446Z,3.35
2023-12-31T01:02:08.536Z,3.15
2023-12-31T01:02:40.521Z,3.17
2023-12-31T01:03:12.554Z,3.40
2023-12-31T01:03:44.600Z,3.08
2023-12-31T01:04:16.568Z,3.00
2023-12-31T01:04:48.650Z,3.03
2023-12-31T01:05:20.669Z,3.30
2023-12-31T01:05:52.662Z,3.40
2023-12-31T01:06:24.587Z,2.85
2023-12-31T01:06:56.511Z,3.03
2023-12-31T01:07:28.483Z,2.80
2023-12-31T01:08:00.459Z,2.97
2023-12-31T01:08:32.409Z,2.80
2023-12-31T01:09:04.396Z,2.60
2023-12-31T01:09:36.313Z,2.80
2023-12-31T01:10:09.295Z,2.53
2023-12-31T01:10:41.425Z,2.85
2023-12-31T01:11:13.421Z,2.40
2023-12-31T01:11:46.753Z,2.50
2023-12-31T01:12:18.754Z,3.00
2023-12-31T01:12:50.643Z,2.60
2023-12-31T01:13:22.668Z,2.50
2023-12-31T01:13:54.856Z,2.15
2023-12-31T01:14:26.921Z,2.40
2023-12-31T01:14:58.833Z,2.50
2023-12-31T01:15:30.826Z,2.53
2023-12-31T01:16:02.819Z,2.55
2023-12-31T01:16:34.894Z,2.45
2023-12-31T01:17:06.885Z,2.00
2023-12-31T01:17:38.816Z,2.28
2023-12-31T01:18:10.819Z,2.45
2023-12-31T01:18:42.781Z,2.22
2023-12-31T01:19:14.822Z,2.50
2023-12-31T01:19:46.811Z,2.75
2023-12-31T01:20:18.787Z,2.60
2023-12-31T01:20:50.715Z,2.50
2023-12-31T01:21:22.713Z,2.30
2023-12-31T01:21:54.595Z,2.22
2023-12-31T01:22:26.562Z,2.20
2023-12-31T01:22:58.549Z,2.67
2023-12-31T01:23:30.464Z,2.45
2023-12-31T01:24:02.572Z,2.42
2023-12-31T01:24:34.524Z,2.30
2023-12-31T01:25:07.726Z,2.53
2023-12-31T01:25:39.735Z,2.58
2023-12-31T01:26:11.671Z,2.22
2023-12-31T01:26:43.607Z,2.30
2023-12-31T01:27:16.930Z,2.25
2023-12-31T01:27:48.851Z,2.47
2023-12-31T01:28:20.836Z,2.65
2023-12-31T01:28:52.788Z,2.30
2023-12-31T01:29:24.708Z,2.25
2023-12-31T01:29:56.637Z,2.63
2023-12-31T01:30:28.662Z,2.30
2023-12-31T01:31:00.685Z,2.30
2023-12-31T01:31:32.689Z,2.65
2023-12-31T01:32:06.095Z,2.63
2023-12-31T01:32:38.053Z,2.60
2023-12-31T01:33:10.157Z,2.58
2023-12-31T01:33:42.234Z,2.47
2023-12-31T01:34:14.168Z,2.40
2023-12-31T01:34:46.213Z,2.50
2023-12-31T01:35:18.450Z,2.28
2023-12-31T01:35:50.369Z,2.58
2023-12-31T01:36:22.281Z,2.70
2023-12-31T01:36:54.211Z,2.47
2023-12-31T01:37:27.964Z,2.50
2023-12-31T01:38:00.425Z,2.30
2023-12-31T01:38:32.361Z,2.53
2023-12-31T01:39:04.386Z,2.90
2023-12-31T01:39:36.263Z,2.80
2023-12-31T01:40:09.083Z,2.13
2023-12-31T01:40:41.008Z,2.75
2023-12-31T01:41:12.945Z,2.67
2023-12-31T01:41:44.902Z,2.58
2023-12-31T01:42:18.247Z,2.47
2023-12-31T01:42:50.359Z,2.63
2023-12-31T01:43:24.609Z,2.63
2023-12-31T01:44:01.600Z,2.30
2023-12-31T01:44:33.508Z,2.38
2023-12-31T01:45:06.494Z,2.50
2023-12-31T01:45:38.498Z,2.40
2023-12-31T01:46:11.464Z,2.95
2023-12-31T01:46:43.718Z,2.60
2023-12-31T01:47:16.091Z,2.42
2023-12-31T01:47:48.270Z,2.42
2023-12-31T01:48:20.372Z,2.65
2023-12-31T01:48:52.410Z,2.20
2023-12-31T01:49:24.521Z,2.30
2023-12-31T01:49:57.257Z,2.40
2023-12-31T01:50:29.189Z,2.22
2023-12-31T01:51:01.207Z,2.28
2023-12-31T01:51:33.686Z,2.33
2023-12-31T01:52:06.608Z,2.65
2023-12-31T01:52:38.587Z,2.28
2023-12-31T01:53:12.159Z,2.40
2023-12-31T01:53:44.607Z,2.80
2023-12-31T01:54:18.928Z,2.50
2023-12-31T01:54:50.876Z,2.13
2023-12-31T01:55:23.155Z,2.65
2023-12-31T01:55:55.472Z,2.20
2023-12-31T01:56:27.790Z,2.40
2023-12-31T01:57:00.484Z,2.50
2023-12-31T01:57:35.367Z,2.35
2023-12-31T01:58:07.325Z,2.30
2023-12-31T01:58:39.649Z,2.42
2023-12-31T01:59:11.814Z,2.58
2023-12-31T01:59:44.085Z,2.30
2023-12-31T02:00:17.719Z,2.08
2023-12-31T02:00:50.097Z,2.63
2023-12-31T02:01:22.159Z,2.47
2023-12-31T02:01:56.824Z,2.70
2023-12-31T02:02:29.537Z,2.30
2023-12-31T02:03:02.153Z,2.60
2023-12-31T02:03:35.140Z,2.42
2023-12-31T02:04:07.066Z,2.35
2023-12-31T02:04:39.334Z,2.92
2023-12-31T02:05:11.402Z,2.30
2023-12-31T02:05:44.200Z,2.30
2023-12-31T02:06:16.089Z,2.42
2023-12-31T02:06:48.092Z,2.40
2023-12-31T02:07:20.481Z,2.60
2023-12-31T02:07:52.407Z,3.13
2023-12-31T02:08:24.395Z,2.95
2023-12-31T02:08:56.441Z,2.83
2023-12-31T02:09:28.496Z,2.67
2023-12-31T02:10:00.717Z,2.88
2023-12-31T02:10:32.718Z,2.92
2023-12-31T02:11:06.146Z,3.20
2023-12-31T02:11:38.545Z,3.20
2023-12-31T02:12:11.289Z,3.38
2023-12-31T02:12:45.526Z,3.35
2023-12-31T02:13:17.887Z,3.30
2023-12-31T02:13:49.862Z,3.30
2023-12-31T02:14:21.927Z,3.50
2023-12-31T02:14:53.864Z,3.30
2023-12-31T02:15:32.306Z,3.55
2023-12-31T02:16:13.299Z,3.55
2023-12-31T02:16:45.302Z,3.60
2023-12-31T02:17:17.383Z,3.55
2023-12-31T02:17:49.401Z,3.70
2023-12-31T02:18:21.589Z,3.63
2023-12-31T02:18:53.629Z,3.53
2023-12-31T02:19:25.665Z,3.92
2023-12-31T02:19:57.629Z,3.55
2023-12-31T02:20:31.162Z,3.80
2023-12-31T02:21:03.342Z,4.20
2023-12-31T02:21:35.475Z,4.30
2023-12-31T02:22:09.271Z,4.53
2023-12-31T02:22:41.359Z,4.40
2023-12-31T02:23:13.313Z,4.10
2023-12-31T02:23:45.301Z,4.18
2023-12-31T02:24:20.552Z,4.20
2023-12-31T02:24:57.277Z,4.50
2023-12-31T02:25:30.924Z,4.50
2023-12-31T02:26:09.107Z,4.05
2023-12-31T02:26:41.715Z,4.50
2023-12-31T02:27:13.705Z,4.30
2023-12-31T02:27:45.639Z,4.18
2023-12-31T02:28:17.543Z,4.25
2023-12-31T02:28:49.570Z,4.53
2023-12-31T02:29:21.527Z,4.57
2023-12-31T02:29:59.265Z,4.63
2023-12-31T02:30:31.229Z,4.30
2023-12-31T02:31:04.232Z,4.55
2023-12-31T02:31:36.255Z,4.65
2023-12-31T02:32:08.345Z,4.57
2023-12-31T02:32:40.337Z,4.38
2023-12-31T02:33:12.419Z,4.50
2023-12-31T02:33:44.617Z,4.38
2023-12-31T02:34:16.777Z,4.72
2023-12-31T02:34:48.800Z,4.82
2023-12-31T02:35:20.892Z,4.90
2023-12-31T02:35:53.339Z,4.60
2023-12-31T02:36:25.314Z,4.80
2023-12-31T02:36:57.295Z,4.85
2023-12-31T02:37:29.243Z,4.93
2023-12-31T02:38:01.160Z,4.63
2023-12-31T02:38:33.106Z,4.68
2023-12-31T02:39:05.089Z,4.40
2023-12-31T02:39:37.017Z,4.68
2023-12-31T02:40:10.306Z,4.90
2023-12-31T02:40:42.329Z,4.60
2023-12-31T02:41:15.696Z,4.90
2023-12-31T02:41:47.638Z,4.85
2023-12-31T02:42:19.568Z,5.30
2023-12-31T02:42:51.527Z,4.53
2023-12-31T02:43:23.540Z,4.70
2023-12-31T02:43:55.607Z,4.82
2023-12-31T02:44:27.538Z,4.65
2023-12-31T02:44:59.515Z,4.53
2023-12-31T02:45:31.470Z,4.53
2023-12-31T02:46:04.095Z,4.80
2023-12-31T02:46:36.079Z,5.00
2023-12-31T02:47:08.033Z,5.00
2023-12-31T02:47:40.082Z,4.78
2023-12-31T02:48:12.291Z,5.03
2023-12-31T02:48:44.578Z,5.00
2023-12-31T02:49:16.588Z,4.85
2023-12-31T02:49:48.632Z,5.05
2023-12-31T02:50:20.647Z,4.55
2023-12-31T02:50:52.582Z,4.93
2023-12-31T02:51:24.520Z,4.65
2023-12-31T02:51:56.513Z,4.75
2023-12-31T02:52:28.482Z,4.80
2023-12-31T02:53:00.689Z,4.70
2023-12-31T02:53:32.641Z,4.50
2023-12-31T02:54:04.806Z,4.40
2023-12-31T02:54:36.822Z,4.45
2023-12-31T02:55:08.969Z,4.28
2023-12-31T02:55:41.109Z,4.30
2023-12-31T02:56:13.070Z,4.25
2023-12-31T02:56:46.404Z,4.25
2023-12-31T02:57:19.937Z,4.53
2023-12-31T02:57:51.883Z,4.40
2023-12-31T02:58:23.836Z,3.97
2023-12-31T02:58:55.844Z,4.00
2023-12-31T02:59:27.863Z,4.10
2023-12-31T02:59:59.834Z,4.43
2023-12-31T03:00:31.862Z,3.78
2023-12-31T03:01:04.288Z,4.40
2023-12-31T03:01:37.728Z,4.30
2023-12-31T03:02:09.718Z,4.20
2023-12-31T03:02:42.118Z,4.10
2023-12-31T03:03:14.090Z,4.47
2023-12-31T03:03:46.089Z,4.32
2023-12-31T03:04:18.041Z,4.20
2023-12-31T03:04:50.149Z,3.92
2023-12-31T03:05:22.219Z,4.13
2023-12-31T03:05:54.263Z,4.00
2023-12-31T03:06:29.995Z,4.28
2023-12-31T03:07:01.984Z,4.30
2023-12-31T03:07:33.919Z,4.50
2023-12-31T03:08:06.982Z,3.83
2023-12-31T03:08:38.920Z,4.45
2023-12-31T03:09:10.932Z,4.10
2023-12-31T03:09:42.832Z,4.10
2023-12-31T03:10:14.798Z,4.22
2023-12-31T03:10:46.895Z,4.22
2023-12-31T03:11:18.956Z,3.83
2023-12-31T03:11:52.256Z,3.72
2023-12-31T03:12:24.234Z,3.80
2023-12-31T03:12:56.184Z,4.60
2023-12-31T03:13:28.155Z,3.78
2023-12-31T03:14:00.106Z,3.67
2023-12-31T03:14:32.085Z,3.80
2023-12-31T03:15:05.095Z,4.15
2023-12-31T03:15:37.021Z,3.92
2023-12-31T03:16:09.186Z,3.97
2023-12-31T03:16:44.200Z,3.97
2023-12-31T03:17:16.239Z,4.05
2023-12-31T03:17:48.320Z,4.05
2023-12-31T03:18:20.728Z,4.00
2023-12-31T03:18:53.360Z,3.97
2023-12-31T03:19:25.583Z,3.92
2023-12-31T03:19:57.611Z,3.88
2023-12-31T03:20:29.571Z,3.90
2023-12-31T03:21:01.526Z,3.95
2023-12-31T03:21:33.469Z,3.50
2023-12-31T03:22:05.413Z,3.65
2023-12-31T03:22:41.986Z,3.97
2023-12-31T03:23:16.481Z,3.78
2023-12-31T03:23:48.741Z,3.88
2023-12-31T03:24:20.817Z,3.70
2023-12-31T03:24:52.782Z,3.90
2023-12-31T03:25:24.720Z,3.70
2023-12-31T03:25:56.710Z,4.20
2023-12-31T03:26:28.686Z,4.20
2023-12-31T03:27:02.006Z,4.10
2023-12-31T03:27:33.951Z,4.10
2023-12-31T03:28:06.468Z,4.53
2023-12-31T03:28:38.679Z,4.05
2023-12-31T03:29:10.663Z,4.07
2023-12-31T03:29:42.577Z,3.90
2023-12-31T03:30:14.853Z,3.92
2023-12-31T03:30:46.861Z,4.13
2023-12-31T03:31:18.896Z,4.22
2023-12-31T03:31:50.931Z,3.97
2023-12-31T03:32:23.063Z,3.75
2023-12-31T03:32:55.095Z,3.80
2023-12-31T03:33:27.126Z,4.15
2023-12-31T03:33:59.247Z,4.30
2023-12-31T03:34:31.339Z,4.13
2023-12-31T03:35:04.096Z,4.10
2023-12-31T03:35:36.025Z,3.97
2023-12-31T03:36:08.262Z,4.03
2023-12-31T03:36:40.255Z,4.07
2023-12-31T03:37:12.164Z,4.07
2023-12-31T03:37:44.187Z,4.03
2023-12-31T03:38:16.124Z,4.20
2023-12-31T03:38:49.676Z,3.95
2023-12-31T03:39:21.831Z,4.38
2023-12-31T03:39:53.802Z,4.03
2023-12-31T03:40:25.826Z,4.00
2023-12-31T03:40:57.783Z,4.28
2023-12-31T03:41:29.872Z,3.85
2023-12-31T03:42:03.269Z,4.43
2023-12-31T03:42:35.238Z,3.85
2023-12-31T03:43:07.144Z,4.13
2023-12-31T03:43:39.124Z,4.00
2023-12-31T03:44:11.034Z,4.30
2023-12-31T03:44:42.968Z,4.38
2023-12-31T03:45:15.010Z,3.90
2023-12-31T03:45:46.955Z,4.10
2023-12-31T03:46:18.983Z,4.18
2023-12-31T03:46:51.026Z,4.60
2023-12-31T03:47:23.038Z,3.95
2023-12-31T03:47:55.110Z,4.00
2023-12-31T03:48:27.186Z,4.00
2023-12-31T03:48:59.231Z,3.72
2023-12-31T03:49:31.255Z,4.00
2023-12-31T03:50:03.567Z,3.67
2023-12-31T03:50:35.499Z,3.83
2023-12-31T03:51:07.403Z,4.07
2023-12-31T03:51:39.317Z,4.20
2023-12-31T03:52:11.368Z,3.97
2023-12-31T03:52:43.623Z,4.15
2023-12-31T03:53:15.842Z,3.85
2023-12-31T03:53:47.851Z,4.13
2023-12-31T03:54:19.826Z,4.05
2023-12-31T03:54:51.786Z,4.20
2023-12-31T03:55:23.965Z,4.00
2023-12-31T03:55:55.947Z,3.80
2023-12-31T03:56:30.038Z,4.20
2023-12-31T03:57:05.378Z,3.70
2023-12-31T03:57:37.304Z,3.80
2023-12-31T03:58:09.253Z,3.90
2023-12-31T03:58:41.211Z,4.05
2023-12-31T03:59:13.223Z,3.72
2023-12-31T03:59:45.193Z,4.10
2023-12-31T04:00:18.493Z,4.25
2023-12-31T04:00:50.464Z,4.00
2023-12-31T04:01:22.816Z,4.13
2023-12-31T04:01:54.842Z,3.60
2023-12-31T04:02:26.912Z,4.32
2023-12-31T04:02:58.935Z,3.85
2023-12-31T04:03:30.965Z,3.78
2023-12-31T04:04:03.000Z,3.70
2023-12-31T04:04:35.196Z,4.03
2023-12-31T04:05:08.340Z,3.90
2023-12-31T04:05:40.391Z,4.05
2023-12-31T04:06:12.361Z,3.88
2023-12-31T04:06:44.454Z,3.80
2023-12-31T04:07:16.473Z,4.00
2023-12-31T04:07:50.124Z,3.90
2023-12-31T04:08:25.318Z,3.60
2023-12-31T04:08:57.261Z,3.92
2023-12-31T04:09:29.247Z,3.80
2023-12-31T04:10:01.687Z,3.60
2023-12-31T04:10:33.700Z,3.92
2023-12-31T04:11:06.624Z,3.65
2023-12-31T04:11:38.639Z,3.88
2023-12-31T04:12:12.063Z,4.10
2023-12-31T04:12:44.002Z,3.60
2023-12-31T04:13:17.576Z,3.38
2023-12-31T04:13:49.564Z,3.50
2023-12-31T04:14:21.542Z,3.28
2023-12-31T04:14:53.577Z,3.83
2023-12-31T04:15:25.643Z,3.65
2023-12-31T04:15:57.620Z,3.50
2023-12-31T04:16:29.683Z,3.90
2023-12-31T04:17:01.618Z,3.70
2023-12-31T04:17:33.564Z,3.45
2023-12-31T04:18:05.976Z,3.50
2023-12-31T04:18:38.018Z,3.60
2023-12-31T04:19:10.073Z,3.50
2023-12-31T04:19:42.079Z,3.70
2023-12-31T04:20:14.408Z,3.78
2023-12-31T04:20:46.367Z,3.65
2023-12-31T04:21:18.748Z,3.85
2023-12-31T04:21:50.758Z,3.47
2023-12-31T04:22:22.717Z,3.90
2023-12-31T04:22:54.688Z,3.60
2023-12-31T04:23:26.636Z,3.40
2023-12-31T04:23:58.544Z,3.50
2023-12-31T04:24:30.610Z,3.40
2023-12-31T04:25:02.556Z,3.15
2023-12-31T04:25:34.618Z,3.30
2023-12-31T04:26:07.404Z,3.53
2023-12-31T04:26:44.282Z,3.17
2023-12-31T04:27:17.620Z,3.53
2023-12-31T04:27:49.627Z,3.40
2023-12-31T04:28:21.678Z,3.40
2023-12-31T04:28:53.746Z,3.47
2023-12-31T04:29:25.746Z,3.30
2023-12-31T04:29:57.675Z,3.80
2023-12-31T04:30:29.668Z,3.40
2023-12-31T04:31:03.330Z,3.45
2023-12-31T04:31:35.269Z,3.97
2023-12-31T04:32:07.640Z,3.20
2023-12-31T04:32:39.894Z,3.08
2023-12-31T04:33:11.947Z,3.13
2023-12-31T04:33:44.408Z,3.50
2023-12-31T04:34:16.399Z,3.30
2023-12-31T04:34:48.383Z,3.47
2023-12-31T04:35:20.443Z,3.20
2023-12-31T04:35:52.379Z,3.25
2023-12-31T04:36:24.452Z,3.13
2023-12-31T04:36:56.429Z,3.30
2023-12-31T04:37:28.406Z,3.65
2023-12-31T04:38:00.429Z,2.95
2023-12-31T04:38:32.708Z,3.17
2023-12-31T04:39:04.668Z,2.90
2023-12-31T04:39:37.295Z,3.03
2023-12-31T04:40:10.326Z,3.30
2023-12-31T04:40:42.565Z,3.00
2023-12-31T04:41:21.283Z,3.30
2023-12-31T04:41:54.673Z,3.30
2023-12-31T04:42:28.308Z,3.20
2023-12-31T04:43:00.549Z,2.65
2023-12-31T04:43:32.874Z,3.22
2023-12-31T04:44:05.303Z,3.13
2023-12-31T04:44:37.537Z,3.33
2023-12-31T04:45:10.734Z,3.25
2023-12-31T04:45:42.758Z,3.42
2023-12-31T04:46:14.880Z,3.05
2023-12-31T04:46:46.872Z,3.25
2023-12-31T04:47:19.591Z,3.03
2023-12-31T04:47:51.580Z,3.00
2023-12-31T04:48:23.617Z,2.97
2023-12-31T04:48:55.556Z,3.20
2023-12-31T04:49:27.568Z,3.15
2023-12-31T04:49:59.847Z,3.17
2023-12-31T04:50:31.931Z,3.40
2023-12-31T04:51:04.440Z,3.20
2023-12-31T04:51:36.355Z,2.90
2023-12-31T04:52:08.302Z,3.05
2023-12-31T04:52:40.276Z,3.00
2023-12-31T04:53:12.189Z,3.15
2023-12-31T04:53:44.107Z,3.20
2023-12-31T04:54:16.040Z,2.83
2023-12-31T04:54:48.092Z,3.45
2023-12-31T04:55:20.103Z,2.72
2023-12-31T04:55:52.163Z,3.10
2023-12-31T04:56:27.088Z,3.22
2023-12-31T04:56:58.991Z,3.13
2023-12-31T04:57:32.276Z,3.05
2023-12-31T04:58:04.635Z,3.45
2023-12-31T04:58:36.594Z,3.47
2023-12-31T04:59:08.556Z,3.20
2023-12-31T04:59:40.619Z,3.50
2023-12-31T05:00:14.794Z,3.22
2023-12-31T05:00:47.318Z,3.17
2023-12-31T05:01:19.886Z,3.25
2023-12-31T05:01:52.148Z,3.80
2023-12-31T05:02:24.147Z,3.17
2023-12-31T05:02:56.075Z,3.40
2023-12-31T05:03:28.018Z,3.20
2023-12-31T05:04:01.368Z,3.15
2023-12-31T05:04:33.336Z,3.10
2023-12-31T05:05:06.579Z,3.00
2023-12-31T05:05:38.560Z,3.30
2023-12-31T05:06:11.131Z,3.45
2023-12-31T05:06:43.128Z,3.05
2023-12-31T05:07:15.575Z,3.28
2023-12-31T05:07:47.590Z,3.10
2023-12-31T05:08:19.580Z,3.25
2023-12-31T05:08:51.751Z,2.90
2023-12-31T05:09:23.739Z,3.38
2023-12-31T05:09:55.670Z,3.10
2023-12-31T05:10:27.630Z,2.80
2023-12-31T05:10:59.663Z,2.60
2023-12-31T05:11:31.612Z,2.70
2023-12-31T05:12:03.976Z,2.97
2023-12-31T05:12:37.281Z,3.25
2023-12-31T05:13:09.259Z,3.00
2023-12-31T05:13:43.471Z,3.05
2023-12-31T05:14:15.455Z,2.60
2023-12-31T05:14:47.457Z,2.92
2023-12-31T05:15:19.411Z,2.67
2023-12-31T05:15:51.330Z,2.80
2023-12-31T05:16:23.323Z,2.50
2023-12-31T05:16:55.372Z,3.15
2023-12-31T05:17:27.507Z,2.70
2023-12-31T05:17:59.563Z,2.70
2023-12-31T05:18:31.732Z,3.15
2023-12-31T05:19:03.799Z,3.10
2023-12-31T05:19:35.830Z,2.88
2023-12-31T05:20:09.348Z,2.80
2023-12-31T05:20:41.376Z,2.70
2023-12-31T05:21:13.779Z,2.70
2023-12-31T05:21:45.694Z,3.58
2023-12-31T05:22:17.894Z,3.40
2023-12-31T05:22:49.891Z,2.70
2023-12-31T05:23:21.896Z,3.13
2023-12-31T05:23:53.863Z,2.53
2023-12-31T05:24:25.830Z,2.78
2023-12-31T05:24:57.765Z,2.90
2023-12-31T05:25:29.781Z,2.80
2023-12-31T05:26:01.794Z,3.10
2023-12-31T05:26:33.862Z,2.70
2023-12-31T05:27:06.172Z,2.80
2023-12-31T05:27:39.478Z,3.17
2023-12-31T05:28:11.461Z,3.10
2023-12-31T05:28:43.475Z,2.67
2023-12-31T05:29:15.860Z,2.83
2023-12-31T05:29:47.754Z,3.15
2023-12-31T05:30:19.814Z,2.90
2023-12-31T05:30:51.879Z,3.00
2023-12-31T05:31:23.924Z,2.95
2023-12-31T05:31:55.929Z,2.67
2023-12-31T05:32:27.908Z,2.92
2023-12-31T05:32:59.963Z,3.13
2023-12-31T05:33:31.961Z,3.08
2023-12-31T05:34:04.042Z,2.85
2023-12-31T05:34:36.069Z,2.75
2023-12-31T05:35:08.420Z,3.17
2023-12-31T05:35:40.980Z,2.90
2023-12-31T05:36:12.957Z,3.00
2023-12-31T05:36:44.923Z,2.80
2023-12-31T05:37:16.931Z,3.08
2023-12-31T05:37:48.986Z,2.88
2023-12-31T05:38:21.510Z,3.25
2023-12-31T05:38:53.458Z,3.05
2023-12-31T05:39:25.418Z,3.35
2023-12-31T05:39:57.394Z,2.97
2023-12-31T05:40:29.358Z,3.40
2023-12-31T05:41:01.384Z,3.38
2023-12-31T05:41:33.354Z,3.10
2023-12-31T05:42:06.107Z,3.28
2023-12-31T05:42:40.343Z,2.95
2023-12-31T05:43:12.703Z,3.00
2023-12-31T05:43:44.745Z,3.20
2023-12-31T05:44:16.667Z,3.10
2023-12-31T05:44:48.914Z,3.10
2023-12-31T05:45:20.824Z,3.05
2023-12-31T05:45:52.747Z,2.95
2023-12-31T05:46:24.776Z,3.20
2023-12-31T05:46:56.795Z,2.90
2023-12-31T05:47:45.322Z,3.25
2023-12-31T05:48:19.222Z,3.30
2023-12-31T05:48:51.434Z,2.97
2023-12-31T05:49:23.551Z,3.00
2023-12-31T05:49:55.604Z,3.20
2023-12-31T05:50:27.592Z,3.20
2023-12-31T05:51:00.193Z,3.00
2023-12-31T05:51:32.126Z,3.30
2023-12-31T05:52:06.082Z,3.28
2023-12-31T05:52:38.080Z,3.15
2023-12-31T05:53:10.113Z,3.10
2023-12-31T05:53:42.104Z,3.20
2023-12-31T05:54:14.057Z,3.13
2023-12-31T05:54:46.011Z,3.38
2023-12-31T05:55:18.006Z,3.40
2023-12-31T05:55:51.846Z,3.15
2023-12-31T05:56:23.903Z,3.03
2023-12-31T05:56:57.870Z,3.38
2023-12-31T05:57:29.946Z,3.55
2023-12-31T05:58:03.505Z,3.20
2023-12-31T05:58:35.536Z,3.28
2023-12-31T05:59:07.538Z,3.28
2023-12-31T05:59:39.550Z,3.30
2023-12-31T06:00:13.149Z,3.20
2023-12-31T06:00:45.154Z,3.30
2023-12-31T06:01:17.366Z,3.45
2023-12-31T06:01:49.600Z,3.13
2023-12-31T06:02:21.745Z,3.33
2023-12-31T06:02:53.724Z,3.33
2023-12-31T06:03:25.710Z,3.38
2023-12-31T06:03:57.731Z,3.10
2023-12-31T06:04:29.765Z,3.15
2023-12-31T06:05:01.804Z,3.22
2023-12-31T06:05:33.889Z,3.28
2023-12-31T06:06:06.205Z,3.38
2023-12-31T06:06:38.169Z,2.97
2023-12-31T06:07:10.091Z,2.85
2023-12-31T06:07:42.491Z,3.30
2023-12-31T06:08:14.523Z,3.00
2023-12-31T06:08:46.485Z,3.03
2023-12-31T06:09:18.464Z,3.10
2023-12-31T06:09:50.566Z,3.00
2023-12-31T06:10:22.665Z,2.95
2023-12-31T06:10:54.700Z,3.33
2023-12-31T06:11:26.739Z,2.80
2023-12-31T06:11:58.685Z,2.90
2023-12-31T06:12:30.651Z,3.20
2023-12-31T06:13:04.663Z,3.00
2023-12-31T06:13:36.935Z,3.20
2023-12-31T06:14:09.028Z,3.35
2023-12-31T06:14:40.992Z,3.00
2023-12-31T06:15:12.984Z,3.08
2023-12-31T06:15:44.940Z,2.95
2023-12-31T06:16:16.941Z,2.90
2023-12-31T06:16:48.954Z,2.80
2023-12-31T06:17:21.051Z,2.90
2023-12-31T06:17:53.141Z,2.88
2023-12-31T06:18:25.264Z,3.08
2023-12-31T06:18:57.358Z,3.35
2023-12-31T06:19:29.372Z,2.95
2023-12-31T06:20:01.536Z,2.72
2023-12-31T06:20:33.485Z,2.85
2023-12-31T06:21:05.786Z,3.22
2023-12-31T06:21:37.830Z,2.92
2023-12-31T06:22:09.794Z,2.90
2023-12-31T06:22:41.867Z,3.00
2023-12-31T06:23:13.786Z,3.00
2023-12-31T06:23:45.804Z,3.00
2023-12-31T06:24:17.869Z,2.70
2023-12-31T06:24:49.799Z,2.95
2023-12-31T06:25:21.806Z,3.05
2023-12-31T06:25:53.884Z,3.20
2023-12-31T06:26:25.845Z,3.00
2023-12-31T06:26:57.780Z,2.80
2023-12-31T06:27:29.726Z,3.00
2023-12-31T06:28:03.233Z,2.72
2023-12-31T06:28:35.386Z,2.85
2023-12-31T06:29:07.367Z,2.78
2023-12-31T06:29:39.270Z,3.42
2023-12-31T06:30:12.387Z,2.70
2023-12-31T06:30:44.561Z,2.92
2023-12-31T06:31:16.772Z,3.00
2023-12-31T06:31:48.926Z,3.05
2023-12-31T06:32:21.437Z,3.17
2023-12-31T06:32:53.577Z,2.80
2023-12-31T06:33:25.776Z,2.90
2023-12-31T06:33:57.907Z,2.72
2023-12-31T06:34:29.946Z,2.83
2023-12-31T06:35:03.274Z,3.15
2023-12-31T06:35:35.325Z,3.10
2023-12-31T06:36:07.641Z,2.83
2023-12-31T06:36:39.631Z,3.00
2023-12-31T06:37:11.863Z,2.95
2023-12-31T06:37:43.843Z,2.92
2023-12-31T06:38:15.829Z,2.70
2023-12-31T06:38:47.775Z,3.00
2023-12-31T06:39:19.721Z,2.97
2023-12-31T06:39:51.680Z,2.78
2023-12-31T06:40:23.817Z,2.90
2023-12-31T06:40:55.783Z,2.70
2023-12-31T06:41:27.957Z,2.88
2023-12-31T06:41:59.882Z,2.80
2023-12-31T06:42:31.851Z,2.78
2023-12-31T06:43:05.538Z,2.90
2023-12-31T06:43:37.721Z,2.85
2023-12-31T06:44:09.712Z,3.05
2023-12-31T06:44:42.742Z,2.90
2023-12-31T06:45:14.764Z,2.55
2023-12-31T06:45:46.686Z,2.92
2023-12-31T06:46:18.981Z,2.72
2023-12-31T06:46:51.050Z,2.50
2023-12-31T06:47:23.150Z,3.08
2023-12-31T06:47:55.150Z,2.92
2023-12-31T06:48:27.201Z,2.83
2023-12-31T06:48:59.159Z,2.75
2023-12-31T06:49:31.226Z,2.83
2023-12-31T06:50:03.484Z,3.00
2023-12-31T06:50:35.465Z,2.72
2023-12-31T06:51:07.681Z,2.40
2023-12-31T06:51:39.594Z,2.63
2023-12-31T06:52:11.518Z,2.70
2023-12-31T06:52:43.533Z,2.42
2023-12-31T06:53:15.468Z,3.10
2023-12-31T06:53:47.483Z,2.70
2023-12-31T06:54:19.453Z,2.92
2023-12-31T06:54:51.411Z,2.33
2023-12-31T06:55:23.395Z,2.67
2023-12-31T06:55:55.424Z,2.47
2023-12-31T06:56:27.403Z,2.55
2023-12-31T06:56:59.415Z,2.88
2023-12-31T06:57:31.361Z,2.75
2023-12-31T06:58:04.916Z,2.65
2023-12-31T06:58:37.958Z,2.60
2023-12-31T06:59:09.996Z,2.38
2023-12-31T06:59:41.942Z,2.30
2023-12-31T07:00:14.694Z,2.60
2023-12-31T07:00:46.658Z,2.72
2023-12-31T07:01:19.151Z,2.40
2023-12-31T07:01:51.123Z,2.65
2023-12-31T07:02:23.103Z,2.97
2023-12-31T07:02:55.092Z,2.50
2023-12-31T07:03:27.182Z,2.67
2023-12-31T07:03:59.108Z,2.70
2023-12-31T07:04:31.108Z,2.58
2023-12-31T07:05:03.562Z,2.60
2023-12-31T07:05:35.598Z,2.78
2023-12-31T07:06:07.803Z,2.60
2023-12-31T07:06:40.720Z,2.70
2023-12-31T07:07:13.191Z,2.83
2023-12-31T07:07:45.303Z,2.75
2023-12-31T07:08:17.300Z,2.80
2023-12-31T07:08:49.317Z,2.50
2023-12-31T07:09:21.316Z,2.88
2023-12-31T07:09:53.538Z,2.70